Decoded Metar for KOQT (OAK RIDGE in TN, USA) (IATA:OQT) | Meteo·Mobile Aviation Weather
aviador You're here:

KOQT Decoded Metar

OAK RIDGE in TN, USA
Report Time2019-02-16 16:53:00
UTC Time2019-02-16 17:31:53
Flight Rules vfr VFR
Wind060° at 06 kt
W.Rank060° ranks 7
Current wind is above 060° avg. (4.4)
Visibility9999 m
Phenomena:N/A
Clouds:Broken 030 Hf
Overcast 043 Hf
Expected CloudBase > 1,200 ft AGL from Temp-Dew spread
Ceiling3,000 ft
Temp07°C (ISA -6)
Dew Point04°C (81% RH)
AAT3.5°C
QNH1012 hPa
Density Alt315 ft
Elevation909 ft
Report Wrong Elevation
Raw Report
METAR KOQT 161653Z AUTO 06006KT 10SM BKN030 OVC043 07/04 A2989 RMK
AO2 SLP129 T00720039=

Extra information for KOQT:More info

Metar Taf Metar & Taf Last 4 Metars F.Rules Stats Wind Profile Meteogram Temp Stats Airport Information Weather charts Add Link Nearby VenuesMetar ALERT Operation Metar Decoded Social comments

AIRNAV info for KOQT